Main page
METAR-TAF:

METAR-TAF

Airports :

Saint-Denis, Réunion

Roland Garros Airport

latitude: 20-53S, longitude: 055-31E, elevation: 21 m

Current weather observation

The report was made 37 minutes ago, at 16:00 UTC
Wind 12 kt from the Southeast
Temperature 23°C
Humidity 73%
Pressure 1015 hPa
Visibility 10 km or more
Broken clouds at a height of 7600 ft
Overcast at a height of 23000 ft

METAR: FMEE 241600Z AUTO 13012KT 9999 BKN076 OVC230 23/18 Q1015 TEMPO 14015G25KT

Time: 20:37 (16:37 UTC)

Forecast

The report was made 5 hours and 37 minutes ago, at 11:00 UTC
Forecast valid from 24 at 12 UTC to 25 at 18 UTC
Wind 15 kt from the Southeast
Visibility 10 km or more
Few clouds at a height of 3000 ft
Scattered clouds at a height of 6600 ft
Temporary
from 24 at 12 UTC to 24 at 15 UTC
Visibility: 4500 m
rain showers
Temporary
from 24 at 12 UTC to 24 at 18 UTC
Wind 15 kt from the Southeast with gusts up to 25 kt

TAF: FMEE 241100Z 2412/2518 13015KT 9999 FEW030 SCT066 TEMPO 2412/2415 4500 SHRA TEMPO 2412/2418 14015G25KT

Weather observations and forecasts of more than 4000 airports (METAR and TAF reports).

The available stations are represented by yellow and red dots on the map.

Hover mouse over dot to see the name of the station.

Then click to see weather observations and forecasts.

To change the map : click on the green buttons with a black cross to zoom in, on the green button with a dash to zoom out, or on the green arrows for adjacent maps.


METAR-TAF: